Time;durP1;ratioP1;P1;durP2;ratioP2;P2;SDS_P1;SDS_P2;PMS_P1;PMS_P2;Temp;Humidity;BMP_temperature;BMP_pressure;BME280_temperature;BME280_humidity;BME280_pressure;Samples;Min_cycle;Max_cycle;Signal;HPM_P1;HPM_P2
2023/09/09 00:00:29;;;;;;;;;16.50;15.50;;;;;29.99;32.71;101001.50;5061282;28;54270;-66
2023/09/09 00:02:54;;;;;;;;;16.75;13.25;;;;;29.96;32.69;100989.09;5061815;28;47480;-66
2023/09/09 00:05:20;;;;;;;;;12.75;11.50;;;;;29.95;32.68;101000.06;5061283;28;45757;-66
2023/09/09 00:07:45;;;;;;;;;15.25;12.50;;;;;29.88;32.71;100985.34;5065140;28;45392;-66
2023/09/09 00:10:11;;;;;;;;;17.00;16.25;;;;;29.87;32.52;100997.19;5061960;28;45182;-66
2023/09/09 00:12:37;;;;;;;;;14.00;13.50;;;;;29.84;32.73;100999.16;5060054;28;47128;-66
2023/09/09 00:15:08;;;;;;;;;16.75;14.00;;;;;29.77;33.06;100992.63;5060132;28;45261;-66
2023/09/09 00:17:33;;;;;;;;;15.50;14.75;;;;;29.77;32.89;100995.34;5060303;28;45326;-66
2023/09/09 00:19:59;;;;;;;;;14.25;13.00;;;;;29.75;33.17;100999.16;5061310;28;45238;-66
2023/09/09 00:22:24;;;;;;;;;14.00;13.00;;;;;29.70;33.09;100994.19;5061156;28;45843;-66
2023/09/09 00:24:49;;;;;;;;;18.25;17.25;;;;;29.69;32.92;100997.88;5061169;28;45241;-66
2023/09/09 00:27:15;;;;;;;;;16.50;16.00;;;;;29.66;33.18;100999.03;5061489;28;45201;-66
2023/09/09 00:29:40;;;;;;;;;14.00;14.00;;;;;29.64;33.33;100992.88;5061424;28;45259;-66
2023/09/09 00:32:05;;;;;;;;;15.25;13.50;;;;;29.60;33.48;100998.72;5059644;28;49904;-66
2023/09/09 00:34:33;;;;;;;;;16.50;14.75;;;;;29.58;32.83;101000.72;5061444;28;45261;-66
2023/09/09 00:36:58;;;;;;;;;19.75;17.00;;;;;29.54;33.72;100992.00;5061470;28;45145;-66
2023/09/09 00:39:23;;;;;;;;;12.75;12.25;;;;;29.54;33.39;100985.75;5060704;28;49218;-65
2023/09/09 00:41:49;;;;;;;;;12.75;12.75;;;;;29.52;33.38;100985.88;5059550;28;47028;-66
2023/09/09 00:44:14;;;;;;;;;15.00;13.00;;;;;29.48;33.32;100985.31;5061123;28;45299;-66
2023/09/09 00:46:39;;;;;;;;;11.50;10.00;;;;;29.50;33.24;100988.72;5059332;28;45342;-66
2023/09/09 00:49:05;;;;;;;;;14.25;13.00;;;;;29.45;33.53;100988.28;5061081;28;45317;-66
2023/09/09 00:51:31;;;;;;;;;15.25;12.50;;;;;29.45;33.38;100988.28;5060809;28;47353;-66
2023/09/09 00:53:56;;;;;;;;;15.25;13.50;;;;;29.44;33.49;100994.69;5060717;28;45345;-66
2023/09/09 00:56:22;;;;;;;;;11.75;11.75;;;;;29.41;33.62;100994.09;5076368;28;45892;-66
2023/09/09 00:58:47;;;;;;;;;12.00;12.00;;;;;29.37;33.15;100982.72;5047212;28;45356;-66
2023/09/09 01:01:13;;;;;;;;;14.75;12.75;;;;;29.37;33.87;100992.69;5040540;28;45379;-66
2023/09/09 01:03:38;;;;;;;;;14.25;10.75;;;;;29.30;33.66;100982.41;5039398;28;45388;-66
2023/09/09 01:06:04;;;;;;;;;13.00;13.00;;;;;29.32;33.76;100993.97;5040693;28;45782;-66
2023/09/09 01:08:30;;;;;;;;;14.25;14.25;;;;;29.28;33.47;100981.72;5057157;28;45276;-66
2023/09/09 01:10:56;;;;;;;;;17.50;15.25;;;;;29.26;33.89;100986.38;5060042;28;46238;-66
2023/09/09 01:13:22;;;;;;;;;12.75;12.25;;;;;29.28;33.57;100995.25;5059240;28;45534;-65
2023/09/09 01:15:48;;;;;;;;;14.25;11.50;;;;;29.25;33.56;100987.34;5059112;28;45276;-66
2023/09/09 01:18:15;;;;;;;;;15.00;13.75;;;;;29.25;34.16;100994.63;5059358;28;45433;-66
2023/09/09 01:20:43;;;;;;;;;13.00;10.75;;;;;29.22;34.00;100989.47;5060192;28;45657;-66
2023/09/09 01:23:09;;;;;;;;;11.50;11.25;;;;;29.22;33.77;100994.88;5060189;28;45403;-66
2023/09/09 01:25:34;;;;;;;;;11.75;11.25;;;;;29.19;33.94;100991.47;5060315;28;45165;-66
2023/09/09 01:27:59;;;;;;;;;14.00;14.00;;;;;29.19;33.88;100994.19;5059206;28;45432;-66
2023/09/09 01:30:25;;;;;;;;;16.00;14.00;;;;;29.18;33.92;100989.75;5075744;28;46868;-66
2023/09/09 01:32:50;;;;;;;;;13.50;12.25;;;;;29.18;33.95;100995.19;5059307;28;45361;-66
2023/09/09 01:35:15;;;;;;;;;12.50;11.25;;;;;29.17;34.14;100981.78;5060279;28;45275;-66
2023/09/09 01:37:41;;;;;;;;;12.00;11.00;;;;;29.15;33.93;100984.59;5060073;28;45395;-65
2023/09/09 01:40:11;;;;;;;;;16.00;11.75;;;;;29.16;33.88;100990.91;5059515;28;58198;-66
2023/09/09 01:42:37;;;;;;;;;15.50;13.00;;;;;29.12;34.09;100990.31;5060289;28;45368;-66
2023/09/09 01:45:03;;;;;;;;;12.25;10.00;;;;;29.11;34.19;100988.59;5059965;28;45324;-66
2023/09/09 01:47:29;;;;;;;;;17.50;16.00;;;;;29.07;34.12;100981.75;5060187;28;45516;-66
2023/09/09 01:49:54;;;;;;;;;12.50;11.75;;;;;29.06;34.25;100985.44;5059954;28;46456;-66
2023/09/09 01:52:20;;;;;;;;;15.25;13.50;;;;;29.07;34.19;100989.00;5059778;28;45248;-66
2023/09/09 01:54:45;;;;;;;;;15.50;13.25;;;;;29.02;34.20;100979.44;5059988;28;45360;-66
2023/09/09 01:57:10;;;;;;;;;15.50;13.50;;;;;29.03;34.21;100983.00;5059846;28;45675;-66
2023/09/09 01:59:35;;;;;;;;;14.75;12.75;;;;;29.01;33.79;100979.59;5059695;28;49425;-66
2023/09/09 02:02:01;;;;;;;;;12.50;12.50;;;;;28.98;34.37;100979.84;5059786;28;49827;-66
2023/09/09 02:04:26;;;;;;;;;10.75;10.25;;;;;28.97;34.37;100983.56;5059976;28;45490;-66
2023/09/09 02:06:52;;;;;;;;;13.00;12.25;;;;;28.97;34.19;100980.88;5059639;28;45231;-66
2023/09/09 02:09:17;;;;;;;;;13.50;13.00;;;;;28.93;34.34;100985.69;5064862;28;53017;-66
2023/09/09 02:11:42;;;;;;;;;12.25;12.25;;;;;28.92;34.53;100985.81;5059889;28;45296;-66
2023/09/09 02:14:08;;;;;;;;;14.25;13.75;;;;;28.89;34.79;100986.09;5058522;28;45316;-66
2023/09/09 02:16:33;;;;;;;;;13.50;10.00;;;;;28.88;34.67;100979.84;5060055;28;45306;-66
2023/09/09 02:18:58;;;;;;;;;14.00;12.25;;;;;28.86;34.94;100976.41;5059522;28;46094;-66
2023/09/09 02:21:24;;;;;;;;;13.00;13.00;;;;;28.85;34.76;100990.91;5060414;28;47717;-66
2023/09/09 02:23:49;;;;;;;;;11.25;10.25;;;;;28.81;34.60;100982.19;5063128;28;45379;-66
2023/09/09 02:26:14;;;;;;;;;12.75;12.75;;;;;28.77;34.52;100985.34;5061439;28;45379;-66
2023/09/09 02:28:40;;;;;;;;;11.75;11.25;;;;;28.78;34.93;100987.88;5063076;28;45256;-66
2023/09/09 02:31:05;;;;;;;;;13.50;13.50;;;;;28.75;35.09;100979.19;5063236;28;45387;-66
2023/09/09 02:33:30;;;;;;;;;13.25;13.25;;;;;28.73;35.05;100982.03;5061688;28;45340;-66
2023/09/09 02:35:59;;;;;;;;;14.25;13.00;;;;;28.71;34.78;100986.72;5061178;28;52767;-66
2023/09/09 02:38:25;;;;;;;;;14.25;13.25;;;;;28.69;34.55;100981.44;5062557;28;46481;-66
2023/09/09 02:40:50;;;;;;;;;16.00;13.50;;;;;28.65;34.84;100977.28;5078467;28;45256;-66
2023/09/09 02:43:15;;;;;;;;;15.25;14.00;;;;;28.63;35.14;100973.84;5062653;28;51909;-66
2023/09/09 02:45:40;;;;;;;;;15.50;12.75;;;;;28.62;34.61;100976.69;5062895;28;50391;-66
2023/09/09 02:48:06;;;;;;;;;12.25;10.00;;;;;28.59;34.60;100982.34;5062754;28;45408;-66
2023/09/09 02:50:31;;;;;;;;;14.00;13.75;;;;;28.56;35.10;100977.22;5061007;28;45254;-66
2023/09/09 02:52:56;;;;;;;;;14.00;13.00;;;;;28.50;35.06;100965.06;5062626;28;45149;-66
2023/09/09 02:55:22;;;;;;;;;12.00;12.00;;;;;28.51;34.79;100973.03;5061005;28;45437;-66
2023/09/09 02:57:50;;;;;;;;;13.00;11.75;;;;;28.49;34.90;100977.75;5062636;28;45361;-66
2023/09/09 03:00:16;;;;;;;;;13.25;11.50;;;;;28.47;35.30;100974.31;5062776;28;45346;-66
2023/09/09 03:02:44;;;;;;;;;14.25;13.00;;;;;28.45;35.35;100973.59;5062682;28;45344;-65
2023/09/09 03:05:10;;;;;;;;;16.25;15.50;;;;;28.42;35.21;100971.16;5062432;28;45341;-66
2023/09/09 03:07:36;;;;;;;;;14.00;11.25;;;;;28.41;35.52;100974.84;5065924;28;45898;-66
2023/09/09 03:10:02;;;;;;;;;12.50;12.00;;;;;28.39;35.39;100976.84;5065480;28;45247;-65
2023/09/09 03:12:27;;;;;;;;;15.75;14.00;;;;;28.38;34.90;100977.81;5062453;28;45508;-66
2023/09/09 03:14:52;;;;;;;;;14.00;13.00;;;;;28.33;35.11;100977.34;5062423;28;45453;-66
2023/09/09 03:17:18;;;;;;;;;15.50;13.00;;;;;28.32;35.12;100984.59;5062260;28;46172;-66
2023/09/09 03:19:44;;;;;;;;;13.75;13.00;;;;;28.28;35.35;100983.16;5062463;28;45341;-66
2023/09/09 03:22:09;;;;;;;;;12.50;12.25;;;;;28.28;35.44;100982.31;5061013;28;45437;-66
2023/09/09 03:24:35;;;;;;;;;15.50;13.75;;;;;28.23;35.60;100974.59;5062398;28;45415;-66
2023/09/09 03:27:00;;;;;;;;;14.00;14.00;;;;;28.23;35.43;100980.00;5061948;28;48264;-66
2023/09/09 03:29:25;;;;;;;;;11.25;11.25;;;;;28.20;35.48;100978.41;5062171;28;48949;-66
2023/09/09 03:31:50;;;;;;;;;13.25;13.25;;;;;28.16;35.38;100973.38;5062298;28;45365;-66
2023/09/09 03:34:16;;;;;;;;;15.75;12.75;;;;;28.15;35.65;100975.25;5062181;28;45485;-66
2023/09/09 03:36:42;;;;;;;;;12.75;12.25;;;;;28.12;35.60;100975.50;5062062;28;45310;-66
2023/09/09 03:39:08;;;;;;;;;16.25;14.50;;;;;28.10;35.92;100966.69;5062146;28;45363;-66
2023/09/09 03:41:33;;;;;;;;;12.25;11.25;;;;;28.07;36.10;100966.94;5062117;28;45513;-66
2023/09/09 03:43:58;;;;;;;;;16.75;12.75;;;;;28.07;35.83;100980.44;5061897;28;52977;-66
2023/09/09 03:46:24;;;;;;;;;13.75;12.50;;;;;28.05;35.70;100971.63;5061805;28;47522;-66
2023/09/09 03:48:50;;;;;;;;;16.25;13.25;;;;;28.01;36.18;100967.41;5062170;28;45238;-66
2023/09/09 03:51:15;;;;;;;;;15.75;12.25;;;;;28.00;36.43;100977.38;5061885;28;45493;-65
2023/09/09 03:53:41;;;;;;;;;12.75;11.50;;;;;27.97;35.78;100972.22;5061743;28;45481;-65
2023/09/09 03:56:06;;;;;;;;;14.00;12.25;;;;;27.96;36.35;100975.94;5061544;28;46124;-66
2023/09/09 03:58:31;;;;;;;;;14.00;14.00;;;;;27.94;35.82;100977.00;5061923;28;45263;-66
2023/09/09 04:01:08;;;;;;;;;13.50;11.50;;;;;27.94;36.53;100980.59;5061339;28;45304;-65
2023/09/09 04:03:35;;;;;;;;;13.25;12.00;;;;;27.90;36.09;100977.28;5060778;28;46098;-66
2023/09/09 04:06:03;;;;;;;;;13.75;12.00;;;;;27.89;36.45;100977.41;5061140;28;46003;-66
2023/09/09 04:08:29;;;;;;;;;11.75;11.75;;;;;27.87;36.02;100984.78;5067349;28;45329;-65
2023/09/09 04:10:55;;;;;;;;;16.75;13.25;;;;;27.83;36.26;100978.78;5061443;28;45264;-66
2023/09/09 04:13:20;;;;;;;;;14.50;13.75;;;;;27.81;36.08;100980.78;5061659;28;45244;-66
2023/09/09 04:15:45;;;;;;;;;9.00;9.00;;;;;27.78;36.34;100981.00;5061411;28;45315;-66
2023/09/09 04:18:12;;;;;;;;;14.25;12.25;;;;;27.78;36.84;100982.88;5061582;28;45154;-66
2023/09/09 04:20:38;;;;;;;;;13.25;11.75;;;;;27.72;36.64;100977.00;5060348;28;45380;-66
2023/09/09 04:23:05;;;;;;;;;13.00;13.00;;;;;27.71;36.68;100977.09;5059559;28;45592;-66
2023/09/09 04:25:30;;;;;;;;;12.00;11.50;;;;;27.70;36.16;100986.22;5061095;28;45454;-66
2023/09/09 04:27:55;;;;;;;;;14.50;12.25;;;;;27.68;36.69;100985.47;5061324;28;45256;-66
2023/09/09 04:30:21;;;;;;;;;14.25;12.75;;;;;27.67;36.47;100983.75;5061470;28;45265;-66
2023/09/09 04:32:46;;;;;;;;;15.50;14.75;;;;;27.64;37.00;100981.31;5061125;28;46020;-66
2023/09/09 04:35:11;;;;;;;;;14.50;14.50;;;;;27.63;36.72;100985.00;5060533;28;60427;-66
2023/09/09 04:37:37;;;;;;;;;16.00;13.50;;;;;27.60;37.13;100982.53;5059751;28;45277;-66
2023/09/09 04:40:05;;;;;;;;;16.25;14.50;;;;;27.59;37.01;100984.38;5076902;28;45347;-66
2023/09/09 04:42:31;;;;;;;;;12.50;12.00;;;;;27.56;36.65;100982.81;5061245;28;45574;-66
2023/09/09 04:44:56;;;;;;;;;16.25;14.00;;;;;27.53;37.10;100985.75;5060110;28;45401;-66
2023/09/09 04:47:21;;;;;;;;;12.00;11.50;;;;;27.48;36.99;100987.13;5060882;28;45292;-66
2023/09/09 04:49:46;;;;;;;;;16.00;14.75;;;;;27.47;36.74;100980.00;5061128;28;45326;-65
2023/09/09 04:52:12;;;;;;;;;17.25;13.00;;;;;27.44;36.49;100983.81;5076491;28;45447;-66
2023/09/09 04:54:37;;;;;;;;;14.50;14.50;;;;;27.43;37.46;100983.94;5060705;28;46266;-66
2023/09/09 04:57:04;;;;;;;;;14.00;12.50;;;;;27.43;37.09;100992.03;5059664;28;45698;-66
2023/09/09 04:59:30;;;;;;;;;14.50;14.00;;;;;27.39;37.25;100986.00;5060945;28;45282;-66
2023/09/09 05:01:55;;;;;;;;;16.50;12.25;;;;;27.37;37.03;100987.94;5060917;28;45326;-66
2023/09/09 05:04:20;;;;;;;;;15.75;13.00;;;;;27.33;37.27;100989.19;5060519;28;46221;-66
2023/09/09 05:06:45;;;;;;;;;14.75;13.75;;;;;27.33;37.01;100990.06;5060522;28;45244;-66
2023/09/09 05:09:11;;;;;;;;;15.75;14.75;;;;;27.29;37.30;100985.88;5067084;28;49303;-66
2023/09/09 05:11:36;;;;;;;;;15.00;15.00;;;;;27.29;37.31;100995.81;5060581;28;45381;-66
2023/09/09 05:14:01;;;;;;;;;13.25;11.75;;;;;27.28;37.29;100996.81;5058875;28;55969;-66
2023/09/09 05:16:28;;;;;;;;;14.25;13.00;;;;;27.24;37.57;100996.19;5060710;28;45410;-66
2023/09/09 05:18:54;;;;;;;;;13.75;13.00;;;;;27.22;37.07;100993.63;5060623;28;45307;-66
2023/09/09 05:21:19;;;;;;;;;16.00;13.50;;;;;27.16;37.26;100985.19;5060573;28;45595;-66
2023/09/09 05:23:44;;;;;;;;;15.50;13.75;;;;;27.17;37.38;100993.13;5060061;28;45315;-66
2023/09/09 05:26:10;;;;;;;;;13.25;12.25;;;;;27.18;36.99;101005.66;5060481;28;45263;-66
2023/09/09 05:28:35;;;;;;;;;14.50;14.25;;;;;27.14;37.38;100995.22;5060449;28;45224;-66
2023/09/09 05:31:04;;;;;;;;;16.50;13.00;;;;;27.12;37.17;100998.06;5059974;28;56614;-66
2023/09/09 05:33:30;;;;;;;;;15.00;14.00;;;;;27.11;37.44;100996.31;5058496;28;47192;-66
2023/09/09 05:35:55;;;;;;;;;14.75;11.75;;;;;27.10;37.46;101002.69;5059922;28;49598;-66
2023/09/09 05:38:20;;;;;;;;;15.25;12.50;;;;;27.06;37.28;100995.84;5060099;28;45339;-66
2023/09/09 05:40:46;;;;;;;;;13.25;12.00;;;;;27.06;37.75;101004.78;5060230;28;45306;-66
2023/09/09 05:43:11;;;;;;;;;12.50;12.50;;;;;27.01;37.22;101004.28;5060092;28;46033;-66
2023/09/09 05:45:36;;;;;;;;;12.25;10.25;;;;;27.00;37.24;101009.81;5075556;28;48636;-66
2023/09/09 05:48:02;;;;;;;;;18.75;13.25;;;;;26.99;37.38;101018.88;5059581;28;54023;-66
2023/09/09 05:50:28;;;;;;;;;12.75;11.75;;;;;26.95;37.59;101012.88;5059598;28;45469;-70
2023/09/09 05:52:53;;;;;;;;;12.50;11.25;;;;;26.91;37.76;101022.19;5059528;28;45297;-66
2023/09/09 05:55:19;;;;;;;;;16.75;11.50;;;;;26.88;37.75;101012.50;5058997;28;61685;-71
2023/09/09 05:57:44;;;;;;;;;16.00;14.75;;;;;26.86;37.87;101017.16;5059218;28;45819;-66
2023/09/09 06:00:10;;;;;;;;;20.00;15.00;;;;;26.83;37.98;101017.41;5060077;28;45552;-67
2023/09/09 06:02:36;;;;;;;;;13.00;10.50;;;;;26.84;38.43;101021.81;5058512;28;48647;-64
2023/09/09 06:05:01;;;;;;;;;18.75;15.25;;;;;26.82;38.14;101025.59;5059695;28;45406;-65
2023/09/09 06:07:26;;;;;;;;;16.75;16.50;;;;;26.80;38.50;101032.97;5062016;28;45426;-64
2023/09/09 06:09:52;;;;;;;;;18.00;15.75;;;;;26.79;38.48;101029.38;5064218;27;45213;-64
2023/09/09 06:12:17;;;;;;;;;17.00;14.50;;;;;26.77;37.90;101024.13;5059694;28;45257;-64
2023/09/09 06:14:42;;;;;;;;;11.50;10.75;;;;;26.74;38.85;101021.69;5058624;28;45286;-64
2023/09/09 06:17:08;;;;;;;;;16.75;13.50;;;;;26.75;38.18;101028.78;5058305;28;45199;-64
2023/09/09 06:19:33;;;;;;;;;14.00;14.00;;;;;26.74;38.69;101023.50;5059631;28;48343;-66
2023/09/09 06:21:58;;;;;;;;;18.50;15.75;;;;;26.71;38.56;101027.25;5059310;28;46071;-65
2023/09/09 06:24:24;;;;;;;;;18.75;15.25;;;;;26.72;38.06;101022.75;5059780;28;45205;-65
2023/09/09 06:26:49;;;;;;;;;13.50;12.00;;;;;26.72;38.48;101025.44;5059705;28;45421;-65
2023/09/09 06:29:14;;;;;;;;;18.00;13.75;;;;;26.72;38.76;101030.84;5059758;28;45485;-65
2023/09/09 06:31:40;;;;;;;;;14.75;13.75;;;;;26.71;38.75;101038.03;5058019;28;46450;-67
2023/09/09 06:34:05;;;;;;;;;13.00;11.00;;;;;26.71;38.94;101031.81;5059728;28;45279;-65
2023/09/09 06:36:30;;;;;;;;;11.75;11.25;;;;;26.71;38.87;101038.03;5059828;28;45436;-65
2023/09/09 06:38:55;;;;;;;;;16.50;13.00;;;;;26.74;39.11;101045.94;5058066;28;45706;-65
2023/09/09 06:41:21;;;;;;;;;11.25;11.25;;;;;26.72;38.78;101042.47;5059193;28;47135;-64
2023/09/09 06:43:47;;;;;;;;;13.75;12.00;;;;;26.72;38.80;101047.00;5059549;28;45446;-65
2023/09/09 06:46:13;;;;;;;;;16.00;14.75;;;;;26.74;38.68;101047.75;5059493;28;45600;-65
2023/09/09 06:48:38;;;;;;;;;16.50;15.00;;;;;26.74;39.10;101045.06;5059459;28;45446;-65
2023/09/09 06:51:03;;;;;;;;;12.00;10.00;;;;;26.72;38.63;101047.84;5059064;28;46037;-65
2023/09/09 06:53:29;;;;;;;;;17.00;13.25;;;;;26.74;39.09;101045.94;5059215;28;45335;-66
2023/09/09 06:55:54;;;;;;;;;10.25;10.25;;;;;26.75;38.97;101055.75;5059284;28;45241;-66
2023/09/09 06:58:19;;;;;;;;;12.00;11.75;;;;;26.77;38.87;101050.22;5059130;28;51687;-66
2023/09/09 07:00:52;;;;;;;;;13.25;13.25;;;;;26.77;39.15;101051.06;5057815;28;47966;-66
2023/09/09 07:03:21;;;;;;;;;16.00;13.00;;;;;26.76;38.87;101053.91;5059266;28;45714;-66
2023/09/09 07:05:46;;;;;;;;;14.50;13.50;;;;;26.77;39.31;101043.00;5057582;28;45289;-66
2023/09/09 07:08:11;;;;;;;;;17.00;14.00;;;;;26.79;39.01;101047.41;5066352;28;45438;-66
2023/09/09 07:10:37;;;;;;;;;14.50;13.00;;;;;26.80;39.00;101049.97;5060713;28;54522;-66
2023/09/09 07:13:03;;;;;;;;;14.25;13.00;;;;;26.80;38.85;101047.28;5062487;28;45285;-66
2023/09/09 07:15:28;;;;;;;;;16.25;12.75;;;;;26.83;39.26;101047.06;5062498;28;45398;-66
2023/09/09 07:17:54;;;;;;;;;12.75;12.00;;;;;26.86;39.59;101054.88;5062529;28;45297;-66
2023/09/09 07:20:20;;;;;;;;;11.75;9.50;;;;;26.82;39.05;101045.34;5061828;28;45308;-66
2023/09/09 07:22:45;;;;;;;;;11.50;10.75;;;;;26.88;39.52;101046.69;5062212;28;45307;-66
2023/09/09 07:25:10;;;;;;;;;14.00;13.75;;;;;26.85;39.01;101039.69;5077898;28;45289;-66
2023/09/09 07:27:36;;;;;;;;;17.00;12.50;;;;;26.92;38.99;101054.41;5062381;28;45639;-67
2023/09/09 07:30:01;;;;;;;;;16.00;12.00;;;;;26.95;39.69;101052.47;5062158;28;46013;-66
2023/09/09 07:32:26;;;;;;;;;12.00;11.25;;;;;26.96;39.51;101046.09;5060941;28;45772;-66
2023/09/09 07:34:52;;;;;;;;;11.75;11.75;;;;;26.99;39.67;101053.94;5062248;28;45347;-66
2023/09/09 07:37:17;;;;;;;;;13.75;11.50;;;;;27.01;39.28;101050.13;5062043;28;45555;-67
2023/09/09 07:39:52;;;;;;;;;13.00;12.50;;;;;27.04;39.66;101049.03;5061937;28;45307;-67
2023/09/09 07:42:18;;;;;;;;;15.50;14.25;;;;;27.08;38.95;101055.88;5062150;28;45452;-66
2023/09/09 07:44:44;;;;;;;;;16.25;11.50;;;;;27.09;39.55;101053.09;5060631;28;45318;-66
2023/09/09 07:47:10;;;;;;;;;15.25;13.25;;;;;27.12;39.54;101051.09;5060610;28;45529;-67
2023/09/09 07:49:36;;;;;;;;;10.25;10.00;;;;;27.15;39.81;101059.81;5060447;28;48089;-67
2023/09/09 07:52:03;;;;;;;;;13.50;11.00;;;;;27.16;39.65;101053.44;5061682;28;45403;-66
2023/09/09 07:54:29;;;;;;;;;15.00;13.75;;;;;27.21;39.41;101059.31;5060370;28;45254;-67
2023/09/09 07:56:54;;;;;;;;;12.25;11.25;;;;;27.24;39.35;101066.31;5077328;28;45468;-66
2023/09/09 07:59:19;;;;;;;;;10.25;10.25;;;;;27.27;39.53;101068.78;5061557;28;45977;-66
2023/09/09 08:01:45;;;;;;;;;9.50;9.25;;;;;27.30;39.18;101059.59;5060285;28;45239;-66
2023/09/09 08:04:10;;;;;;;;;15.25;11.00;;;;;27.33;39.10;101053.94;5060515;28;45392;-66
2023/09/09 08:06:36;;;;;;;;;12.50;11.00;;;;;27.34;38.94;101050.25;5061508;28;45499;-66
2023/09/09 08:09:02;;;;;;;;;11.00;9.25;;;;;27.38;39.01;101057.13;5068034;28;46137;-66
2023/09/09 08:11:28;;;;;;;;;14.25;11.25;;;;;27.43;38.95;101060.31;5061582;28;45407;-66
2023/09/09 08:13:53;;;;;;;;;14.50;9.00;;;;;27.46;39.54;101056.53;5061342;28;45454;-66
2023/09/09 08:16:18;;;;;;;;;12.75;12.75;;;;;27.48;39.14;101062.66;5059773;28;45407;-67
2023/09/09 08:18:43;;;;;;;;;15.25;12.75;;;;;27.53;39.27;101068.53;5060572;28;46181;-67
2023/09/09 08:21:10;;;;;;;;;16.00;14.25;;;;;27.57;39.07;101062.78;5061345;28;45248;-66
2023/09/09 08:23:36;;;;;;;;;11.00;10.00;;;;;27.63;39.15;101065.97;5061239;28;45238;-67
2023/09/09 08:26:01;;;;;;;;;12.75;10.25;;;;;27.66;39.25;101065.69;5061385;28;45174;-66
2023/09/09 08:28:27;;;;;;;;;11.50;11.00;;;;;27.71;39.45;101069.75;5057676;28;45269;-66
2023/09/09 08:31:00;;;;;;;;;13.75;12.25;;;;;27.73;39.24;101073.19;5039977;28;45263;-66
2023/09/09 08:33:25;;;;;;;;;15.00;12.00;;;;;27.78;39.50;101070.09;5040888;28;45173;-66
2023/09/09 08:35:51;;;;;;;;;12.00;12.00;;;;;27.79;38.92;101060.16;5040834;28;45435;-66
2023/09/09 08:38:16;;;;;;;;;10.75;10.50;;;;;27.87;39.14;101063.94;5039169;28;47291;-66
2023/09/09 08:41:14;;;;;;;;;11.50;10.25;;;;;27.96;39.31;101067.72;5040977;28;45288;-66
2023/09/09 08:44:25;;;;;;;;;17.75;12.00;;;;;28.02;39.06;101067.19;5049836;28;45410;-66
2023/09/09 08:46:52;;;;;;;;;14.25;13.50;;;;;28.05;39.15;101056.19;5060760;28;45585;-66
2023/09/09 08:49:22;;;;;;;;;11.25;10.25;;;;;28.10;38.63;101061.22;5076401;28;48450;-66
2023/09/09 08:52:06;;;;;;;;;12.00;11.00;;;;;28.19;38.55;101067.69;5059203;28;45315;-66
2023/09/09 08:54:32;;;;;;;;;16.00;12.50;;;;;28.23;38.42;101066.44;5060728;28;45354;-66
2023/09/09 08:56:59;;;;;;;;;13.50;12.50;;;;;28.30;38.63;101070.34;5060770;28;45288;-67
2023/09/09 08:59:25;;;;;;;;;13.50;11.75;;;;;28.34;38.92;101069.09;5060436;28;46760;-67
2023/09/09 09:01:51;;;;;;;;;14.00;12.75;;;;;28.45;38.59;101073.59;5060829;28;45256;-67
2023/09/09 09:04:18;;;;;;;;;14.00;13.50;;;;;28.48;38.76;101059.81;5059310;28;45272;-67
2023/09/09 09:06:47;;;;;;;;;13.00;12.50;;;;;28.57;39.09;101065.44;5060403;28;45162;-67
2023/09/09 09:09:12;;;;;;;;;10.75;9.75;;;;;28.62;38.82;101063.19;5065721;28;45562;-67
2023/09/09 09:11:38;;;;;;;;;15.00;12.50;;;;;28.71;38.47;101067.81;5060431;28;45271;-67
2023/09/09 09:14:08;;;;;;;;;11.75;11.75;;;;;28.79;38.28;101064.44;5059217;28;45922;-67
2023/09/09 09:16:38;;;;;;;;;15.00;12.75;;;;;28.87;38.40;101067.34;5060643;28;45236;-67
2023/09/09 09:19:04;;;;;;;;;14.50;13.75;;;;;28.94;38.38;101068.50;5060273;28;45331;-67
2023/09/09 09:21:34;;;;;;;;;12.75;12.50;;;;;29.05;38.68;101069.44;5060515;28;45478;-67
2023/09/09 09:24:01;;;;;;;;;12.75;12.00;;;;;29.14;38.35;101064.06;5060394;28;45285;-67
2023/09/09 09:26:27;;;;;;;;;15.00;13.75;;;;;29.25;38.42;101070.38;5060165;28;45377;-67
2023/09/09 09:28:53;;;;;;;;;11.75;11.00;;;;;29.35;38.23;101071.31;5053604;28;46841;-65
2023/09/09 09:31:23;;;;;;;;;11.50;10.50;;;;;29.45;38.50;101058.66;5040014;28;45335;-65
2023/09/09 09:33:52;;;;;;;;;13.25;13.25;;;;;29.58;38.32;101061.13;5047789;28;45266;-65
2023/09/09 09:36:22;;;;;;;;;14.50;11.75;;;;;29.74;38.55;101067.88;5058904;28;45363;-64
2023/09/09 09:38:51;;;;;;;;;13.00;12.00;;;;;29.88;37.90;101067.44;5059834;28;45179;-65
2023/09/09 09:41:17;;;;;;;;;12.50;12.25;;;;;30.07;37.92;101063.94;5059736;28;45460;-65
2023/09/09 09:43:45;;;;;;;;;12.25;11.00;;;;;30.26;38.11;101071.19;5060203;28;45302;-65
2023/09/09 09:46:18;;;;;;;;;14.00;13.00;;;;;30.47;38.29;101068.34;5057433;28;45378;-65
2023/09/09 09:48:43;;;;;;;;;12.75;11.50;;;;;30.68;37.85;101069.22;5039661;28;45498;-65
2023/09/09 09:51:09;;;;;;;;;15.00;12.00;;;;;30.91;37.82;101064.31;5039611;28;45438;-65
2023/09/09 09:53:57;;;;;;;;;13.00;11.75;;;;;31.13;38.08;101057.69;5046326;28;45237;-65
2023/09/09 09:56:22;;;;;;;;;11.25;11.25;;;;;31.39;38.12;101063.28;5046085;28;45225;-65
2023/09/09 09:58:50;;;;;;;;;13.50;11.25;;;;;31.56;37.47;101053.47;5059932;28;45178;-65
2023/09/09 10:01:15;;;;;;;;;14.75;11.25;;;;;31.80;37.62;101059.38;5058713;28;45458;-65
2023/09/09 10:03:47;;;;;;;;;12.00;11.00;;;;;32.01;37.36;101072.66;5060085;28;45466;-65
2023/09/09 10:06:18;;;;;;;;;10.25;10.00;;;;;32.16;37.30;101070.25;5059376;28;45257;-65
2023/09/09 10:08:55;;;;;;;;;15.00;14.50;;;;;32.34;36.62;101064.81;5066229;28;46469;-65
2023/09/09 10:11:27;;;;;;;;;9.50;9.50;;;;;32.44;37.02;101065.63;5059549;28;45264;-65
2023/09/09 10:14:05;;;;;;;;;12.50;11.75;;;;;32.60;36.09;101067.59;5059851;28;45316;-65
2023/09/09 10:16:31;;;;;;;;;9.50;9.50;;;;;32.72;36.59;101063.59;5058406;28;45454;-65
2023/09/09 10:18:57;;;;;;;;;14.75;13.75;;;;;32.82;35.88;101063.53;5058166;28;48162;-68
2023/09/09 10:21:26;;;;;;;;;10.00;8.75;;;;;32.95;36.01;101065.81;5058419;28;45277;-65
2023/09/09 10:23:54;;;;;;;;;15.50;12.50;;;;;33.06;35.45;101060.09;5057869;28;45377;-65
2023/09/09 10:26:21;;;;;;;;;16.50;13.00;;;;;33.20;35.89;101058.63;5059525;28;45335;-65
2023/09/09 10:28:48;;;;;;;;;13.50;13.00;;;;;33.35;35.51;101053.44;5058034;28;47300;-66
2023/09/09 10:31:14;;;;;;;;;12.00;12.00;;;;;33.49;35.55;101049.25;5059412;28;45417;-65
2023/09/09 10:33:45;;;;;;;;;7.00;6.50;;;;;33.68;34.81;101047.25;5058138;28;45240;-65
2023/09/09 10:36:12;;;;;;;;;13.00;12.50;;;;;33.89;35.49;101052.28;5058298;28;45744;-65
2023/09/09 10:38:38;;;;;;;;;13.75;12.75;;;;;34.07;35.62;101049.38;5059340;28;45266;-65
2023/09/09 10:41:05;;;;;;;;;13.75;13.75;;;;;34.31;34.96;101048.53;5057835;28;45309;-65
2023/09/09 10:43:31;;;;;;;;;15.00;12.00;;;;;34.57;34.83;101055.72;5061965;28;45401;-65
2023/09/09 10:45:56;;;;;;;;;13.75;13.00;;;;;34.81;34.68;101051.25;5062871;28;45346;-65
2023/09/09 10:48:23;;;;;;;;;17.25;13.75;;;;;35.08;34.20;101038.22;5062976;28;45419;-65
2023/09/09 10:50:51;;;;;;;;;11.75;11.25;;;;;35.35;34.40;101041.53;5077896;28;45332;-65
2023/09/09 10:53:29;;;;;;;;;9.00;9.00;;;;;35.61;33.78;101046.72;5062939;28;45281;-66
2023/09/09 10:56:00;;;;;;;;;13.00;11.50;;;;;35.89;34.03;101048.97;5062627;28;45498;-65
2023/09/09 10:58:33;;;;;;;;;10.50;10.50;;;;;36.13;33.72;101045.19;5062745;28;45325;-66
2023/09/09 11:01:02;;;;;;;;;15.50;14.00;;;;;36.37;32.86;101037.84;5062616;28;45272;-66
2023/09/09 11:03:50;;;;;;;;;14.00;12.75;;;;;36.60;32.98;101037.78;5063035;28;45360;-66
2023/09/09 11:06:21;;;;;;;;;11.00;11.00;;;;;36.90;32.84;101038.69;5062156;28;45411;-65